createdAt,value
2018-06-17T00:00:05.213Z,22.2
2018-06-17T00:01:06.370Z,22.1
2018-06-17T00:02:07.559Z,21.8
2018-06-17T00:03:08.714Z,21.7
2018-06-17T00:04:09.885Z,21.8
2018-06-17T00:05:11.048Z,22
2018-06-17T00:06:12.223Z,21.3
2018-06-17T00:07:13.562Z,21.6
2018-06-17T00:08:14.705Z,21.7
2018-06-17T00:09:15.895Z,22
2018-06-17T00:10:17.045Z,21.9
2018-06-17T00:11:18.196Z,21.8
2018-06-17T00:12:19.539Z,21.4
2018-06-17T00:13:20.673Z,21.5
2018-06-17T00:14:21.841Z,21.7
2018-06-17T00:15:22.995Z,21.4
2018-06-17T00:16:24.165Z,21.3
2018-06-17T00:17:25.345Z,21.5
2018-06-17T00:18:26.547Z,21.2
2018-06-17T00:19:27.673Z,21.4
2018-06-17T00:20:28.835Z,21.6
2018-06-17T00:21:29.980Z,21.5
2018-06-17T00:22:31.154Z,21.6
2018-06-17T00:23:32.300Z,21.4
2018-06-17T00:24:33.445Z,21.8
2018-06-17T00:25:34.617Z,21.6
2018-06-17T00:26:35.745Z,21.4
2018-06-17T00:27:36.926Z,21.5
2018-06-17T00:28:38.061Z,21.8
2018-06-17T00:29:39.202Z,21.8
2018-06-17T00:30:40.351Z,22
2018-06-17T00:31:41.480Z,22.3
2018-06-17T00:32:42.656Z,22.4
2018-06-17T00:33:43.789Z,22.4
2018-06-17T00:34:44.938Z,22.2
2018-06-17T00:35:46.117Z,22.2
2018-06-17T00:36:47.267Z,22.4
2018-06-17T00:37:49.706Z,22.1
2018-06-17T00:38:51.261Z,22.1
2018-06-17T00:39:52.389Z,22.3
2018-06-17T00:40:53.562Z,22.4
2018-06-17T00:41:54.680Z,22.5
2018-06-17T00:42:55.856Z,22.4
2018-06-17T00:43:57.011Z,22.5
2018-06-17T00:44:58.166Z,22.5
2018-06-17T00:45:59.300Z,22.2
2018-06-17T00:47:00.416Z,22
2018-06-17T00:48:01.598Z,22.1
2018-06-17T00:49:02.762Z,22.1
2018-06-17T00:50:03.904Z,22.1
2018-06-17T00:51:05.049Z,22.3
2018-06-17T00:52:06.223Z,22.3
2018-06-17T00:53:07.425Z,22.1
2018-06-17T00:54:08.560Z,22.3
2018-06-17T00:55:09.725Z,22.1
2018-06-17T00:56:10.888Z,22
2018-06-17T00:57:12.031Z,21.8
2018-06-17T00:58:13.188Z,21.8
2018-06-17T00:59:15.057Z,21.9
2018-06-17T01:00:16.478Z,22.2
2018-06-17T01:01:17.612Z,22.4
2018-06-17T01:02:18.781Z,22.3
2018-06-17T01:03:19.941Z,22.3
2018-06-17T01:04:21.135Z,22.4
2018-06-17T01:05:22.302Z,22.3
2018-06-17T01:06:23.489Z,22
2018-06-17T01:07:24.604Z,21.9
2018-06-17T01:08:26.095Z,21.8
2018-06-17T01:09:27.278Z,21.8
2018-06-17T01:10:28.422Z,21.9
2018-06-17T01:11:29.568Z,21.8
2018-06-17T01:12:30.683Z,21.8
2018-06-17T01:13:31.858Z,21.7
2018-06-17T01:14:33.000Z,21.6
2018-06-17T01:15:34.154Z,21.8
2018-06-17T01:16:35.289Z,21.7
2018-06-17T01:17:36.428Z,21.7
2018-06-17T01:18:37.580Z,22
2018-06-17T01:19:38.698Z,21.9
2018-06-17T01:20:39.831Z,22.1
2018-06-17T01:21:40.960Z,22.2
2018-06-17T01:22:42.108Z,22.1
2018-06-17T01:23:43.534Z,22.1
2018-06-17T01:24:44.666Z,22.1
2018-06-17T01:25:45.836Z,22
2018-06-17T01:26:46.964Z,21.9
2018-06-17T01:27:48.124Z,21.5
2018-06-17T01:28:49.299Z,21.8
2018-06-17T01:29:50.444Z,21.9
2018-06-17T01:30:51.591Z,21.9
2018-06-17T01:31:52.723Z,21.9
2018-06-17T01:32:54.004Z,21.6
2018-06-17T01:33:55.205Z,21.8
2018-06-17T01:34:56.395Z,21.6
2018-06-17T01:35:57.508Z,21.1
2018-06-17T01:36:58.634Z,21
2018-06-17T01:37:59.783Z,21.5
2018-06-17T01:39:01.211Z,21.5
2018-06-17T01:40:02.366Z,21.8
2018-06-17T01:41:03.519Z,21.7
2018-06-17T01:42:04.661Z,21.6
2018-06-17T01:43:05.829Z,21.5
2018-06-17T01:44:06.984Z,21.6
2018-06-17T01:45:08.121Z,21.6
2018-06-17T01:46:09.239Z,21.7
2018-06-17T01:47:10.406Z,21.9
2018-06-17T01:48:11.549Z,21.8
2018-06-17T01:49:12.719Z,21.8
2018-06-17T01:50:13.853Z,22
2018-06-17T01:51:14.985Z,21.9
2018-06-17T01:52:16.198Z,22.1
2018-06-17T01:53:17.353Z,22.1
2018-06-17T01:54:18.537Z,21.9
2018-06-17T01:55:19.680Z,21.6
2018-06-17T01:56:20.801Z,21.5
2018-06-17T01:57:21.933Z,21.5
2018-06-17T01:58:23.055Z,21.4
2018-06-17T01:59:24.656Z,21.6
2018-06-17T02:00:25.801Z,21.8
2018-06-17T02:01:26.995Z,21.6
2018-06-17T02:02:28.162Z,21.5
2018-06-17T02:03:29.292Z,21.4
2018-06-17T02:04:30.465Z,21.5
2018-06-17T02:05:31.599Z,21.4
2018-06-17T02:06:32.737Z,21.7
2018-06-17T02:07:33.880Z,21.8
2018-06-17T02:08:35.045Z,21.5
2018-06-17T02:09:36.688Z,21.2
2018-06-17T02:10:38.037Z,21
2018-06-17T02:11:39.220Z,20.7
2018-06-17T02:12:40.366Z,20.8
2018-06-17T02:13:41.573Z,21.3
2018-06-17T02:14:42.840Z,21.4
2018-06-17T02:15:43.985Z,21.4
2018-06-17T02:16:45.140Z,21.3
2018-06-17T02:17:46.380Z,21.3
2018-06-17T02:18:47.512Z,21.5
2018-06-17T02:19:48.711Z,21.6
2018-06-17T02:20:49.835Z,21.7
2018-06-17T02:21:50.964Z,21.8
2018-06-17T02:22:52.100Z,21.7
2018-06-17T02:23:53.278Z,21.4
2018-06-17T02:24:54.505Z,21.4
2018-06-17T02:25:55.624Z,21.1
2018-06-17T02:26:56.745Z,20.5
2018-06-17T02:27:57.987Z,20.7
2018-06-17T02:28:59.121Z,20.8
2018-06-17T02:30:00.348Z,20.6
2018-06-17T02:31:01.515Z,20.3
2018-06-17T02:32:03.487Z,20.5
2018-06-17T02:33:05.057Z,20.2
2018-06-17T02:34:08.538Z,20.4
2018-06-17T02:35:09.719Z,20.4
2018-06-17T02:36:10.926Z,20.4
2018-06-17T02:37:12.137Z,20.8
2018-06-17T02:38:13.386Z,20.7
2018-06-17T02:39:14.578Z,21
2018-06-17T02:40:15.906Z,20.8
2018-06-17T02:41:17.316Z,21
2018-06-17T02:42:25.003Z,20.8
2018-06-17T02:43:32.962Z,20.5
2018-06-17T02:44:34.167Z,20.5
2018-06-17T02:45:35.325Z,20.5
2018-06-17T02:46:36.499Z,20.5
2018-06-17T02:47:37.761Z,20.3
2018-06-17T02:48:39.021Z,20.6
2018-06-17T02:49:40.156Z,20.4
2018-06-17T02:50:42.155Z,20.4
2018-06-17T02:51:45.635Z,20.2
2018-06-17T02:52:46.773Z,20.1
2018-06-17T02:53:47.955Z,20.3
2018-06-17T02:54:49.094Z,20.3
2018-06-17T02:55:50.288Z,20.5
2018-06-17T02:56:51.440Z,20.4
2018-06-17T02:57:52.601Z,20
2018-06-17T02:58:53.757Z,19.9
2018-06-17T02:59:54.885Z,20.2
2018-06-17T03:00:56.084Z,20.2
2018-06-17T03:01:57.274Z,20.6
2018-06-17T03:02:58.401Z,20.5
2018-06-17T03:03:59.558Z,20.5
2018-06-17T03:05:00.654Z,20.8
2018-06-17T03:06:01.874Z,20.7
2018-06-17T03:07:03.013Z,20.5
2018-06-17T03:08:04.162Z,20.2
2018-06-17T03:09:05.315Z,19.9
2018-06-17T03:10:06.473Z,19.8
2018-06-17T03:11:07.694Z,20.1
2018-06-17T03:12:08.840Z,20.2
2018-06-17T03:13:09.967Z,20.1
2018-06-17T03:14:11.140Z,20
2018-06-17T03:15:13.567Z,19.6
2018-06-17T03:16:14.957Z,19.8
2018-06-17T03:17:16.661Z,20.1
2018-06-17T03:18:17.854Z,20.1
2018-06-17T03:19:19.034Z,19.8
2018-06-17T03:20:20.188Z,20.2
2018-06-17T03:21:21.388Z,20.2
2018-06-17T03:22:22.573Z,19.7
2018-06-17T03:23:23.697Z,20.1
2018-06-17T03:24:24.836Z,20
2018-06-17T03:25:25.990Z,19.7
2018-06-17T03:26:27.216Z,19.6
2018-06-17T03:27:28.380Z,19.7
2018-06-17T03:28:29.544Z,19.6
2018-06-17T03:29:30.692Z,19.8
2018-06-17T03:30:31.914Z,19.8
2018-06-17T03:31:33.492Z,19.8
2018-06-17T03:32:34.863Z,20
2018-06-17T03:33:36.263Z,19.8
2018-06-17T03:34:39.039Z,19.7
2018-06-17T03:35:40.686Z,19.4
2018-06-17T03:36:41.870Z,19.5
2018-06-17T03:37:43.016Z,19.5
2018-06-17T03:38:44.128Z,19.7
2018-06-17T03:39:45.249Z,19.5
2018-06-17T03:40:46.386Z,19.7
2018-06-17T03:41:47.823Z,19.5
2018-06-17T03:42:48.935Z,19.6
2018-06-17T03:43:50.108Z,19.5
2018-06-17T03:44:51.255Z,19.7
2018-06-17T03:45:52.429Z,19.9
2018-06-17T03:46:53.598Z,19.9
2018-06-17T03:47:54.760Z,19.9
2018-06-17T03:48:55.941Z,20
2018-06-17T03:49:57.060Z,19.6
2018-06-17T03:50:58.219Z,19.9
2018-06-17T03:51:59.390Z,19.7
2018-06-17T03:53:03.032Z,19.9
2018-06-17T03:54:05.595Z,19.9
2018-06-17T03:55:06.818Z,19.8
2018-06-17T03:56:07.987Z,20.1
2018-06-17T03:57:09.175Z,19.9
2018-06-17T03:58:10.337Z,19.9
2018-06-17T03:59:11.774Z,20.3
2018-06-17T04:00:14.740Z,20.1
2018-06-17T04:01:16.071Z,20.4
2018-06-17T04:02:17.291Z,20.4
2018-06-17T04:03:18.433Z,20.3
2018-06-17T04:04:19.569Z,20.2
2018-06-17T04:05:20.745Z,20.2
2018-06-17T04:06:21.871Z,20
2018-06-17T04:07:23.077Z,20
2018-06-17T04:08:24.212Z,19.9
2018-06-17T04:09:25.364Z,20
2018-06-17T04:10:26.534Z,19.9
2018-06-17T04:11:27.665Z,20.1
2018-06-17T04:12:28.843Z,20.1
2018-06-17T04:13:29.984Z,19.9
2018-06-17T04:14:31.157Z,20
2018-06-17T04:15:32.438Z,19.9
2018-06-17T04:16:33.742Z,19.8
2018-06-17T04:17:34.889Z,19.9
2018-06-17T04:18:36.021Z,19.8
2018-06-17T04:19:37.182Z,19.7
2018-06-17T04:20:38.320Z,19.8
2018-06-17T04:21:39.460Z,19.8
2018-06-17T04:22:40.619Z,19.6
2018-06-17T04:23:42.205Z,19.6
2018-06-17T04:24:43.362Z,19.7
2018-06-17T04:25:44.517Z,19.8
2018-06-17T04:26:45.683Z,19.8
2018-06-17T04:27:47.038Z,19.8
2018-06-17T04:28:48.204Z,19.7
2018-06-17T04:29:49.402Z,20
2018-06-17T04:30:50.824Z,19.9
2018-06-17T04:31:52.164Z,19.6
2018-06-17T04:32:53.494Z,20
2018-06-17T04:33:54.754Z,19.9
2018-06-17T04:34:55.958Z,20.1
2018-06-17T04:35:57.117Z,20.4
2018-06-17T04:36:58.313Z,20.6
2018-06-17T04:37:59.500Z,20.7
2018-06-17T04:39:00.653Z,20.7
2018-06-17T04:40:01.856Z,20.5
2018-06-17T04:41:03.040Z,20.3
2018-06-17T04:42:04.205Z,20.3
2018-06-17T04:43:05.779Z,20.2
2018-06-17T04:44:06.946Z,20
2018-06-17T04:45:08.087Z,20.1
2018-06-17T04:46:09.212Z,20.4
2018-06-17T04:47:10.342Z,20.5
2018-06-17T04:48:12.758Z,20.7
2018-06-17T04:49:14.080Z,20.7
2018-06-17T04:50:15.442Z,20.5
2018-06-17T04:51:16.745Z,20.5
2018-06-17T04:52:17.889Z,20.6
2018-06-17T04:53:19.081Z,20.5
2018-06-17T04:54:20.329Z,20.6
2018-06-17T04:55:21.452Z,20.5
2018-06-17T04:56:22.836Z,20.6
2018-06-17T04:57:23.957Z,20.6
2018-06-17T04:58:25.196Z,20.7
2018-06-17T04:59:26.372Z,20.8
2018-06-17T05:00:27.545Z,20.8
2018-06-17T05:01:28.688Z,20.7
2018-06-17T05:02:29.833Z,20.8
2018-06-17T05:03:30.999Z,20.9
2018-06-17T05:04:32.140Z,20.7
2018-06-17T05:05:33.348Z,20.9
2018-06-17T05:06:34.865Z,20.8
2018-06-17T05:07:36.202Z,20.6
2018-06-17T05:08:37.443Z,20.7
2018-06-17T05:09:38.601Z,20.7
2018-06-17T05:10:39.724Z,20.8
2018-06-17T05:11:40.858Z,20.8
2018-06-17T05:12:41.980Z,20.8
2018-06-17T05:13:43.465Z,20.8
2018-06-17T05:14:44.584Z,20.8
2018-06-17T05:15:45.704Z,21
2018-06-17T05:16:46.850Z,20.8
2018-06-17T05:17:47.982Z,20.8
2018-06-17T05:18:49.164Z,20.9
2018-06-17T05:19:50.443Z,20.8
2018-06-17T05:20:51.856Z,20.7
2018-06-17T05:21:54.011Z,21
2018-06-17T05:22:56.093Z,20.8
2018-06-17T05:23:57.395Z,20.8
2018-06-17T05:24:58.544Z,20.9
2018-06-17T05:25:59.656Z,20.8
2018-06-17T05:27:00.837Z,20.7
2018-06-17T05:28:02.056Z,20.5
2018-06-17T05:29:03.256Z,20.7
2018-06-17T05:30:04.396Z,20.8
2018-06-17T05:31:05.513Z,20.6
2018-06-17T05:32:06.685Z,20.8
2018-06-17T05:33:07.841Z,20.8
2018-06-17T05:34:09.067Z,20.7
2018-06-17T05:35:10.487Z,20.9
2018-06-17T05:36:11.744Z,20.9
2018-06-17T05:37:13.239Z,21.1
2018-06-17T05:38:14.439Z,21.2
2018-06-17T05:39:15.833Z,21.2
2018-06-17T05:40:17.033Z,21.2
2018-06-17T05:41:18.163Z,21.4
2018-06-17T05:42:19.305Z,21.5
2018-06-17T05:43:20.913Z,21.6
2018-06-17T05:44:22.193Z,21.7
2018-06-17T05:45:23.475Z,21.6
2018-06-17T05:46:24.788Z,21.8
2018-06-17T05:47:25.961Z,21.9
2018-06-17T05:48:27.084Z,21.9
2018-06-17T05:49:28.276Z,22
2018-06-17T05:50:29.396Z,22.2
2018-06-17T05:51:30.512Z,22.3
2018-06-17T05:52:31.644Z,22.4
2018-06-17T05:53:32.781Z,22.4
2018-06-17T05:54:33.968Z,22.8
2018-06-17T05:55:35.174Z,22.8
2018-06-17T05:56:36.301Z,22.8
2018-06-17T05:57:37.439Z,22.7
2018-06-17T05:58:38.564Z,22.8
2018-06-17T05:59:39.750Z,22.8
2018-06-17T06:00:40.889Z,22.6
2018-06-17T06:01:42.016Z,22.6
2018-06-17T06:02:43.148Z,22.7
2018-06-17T06:03:44.410Z,22.8
2018-06-17T06:04:45.644Z,22.8
2018-06-17T06:05:46.855Z,22.8
2018-06-17T06:06:48.009Z,22.9
2018-06-17T06:07:49.137Z,23.1
2018-06-17T06:08:50.256Z,23.2
2018-06-17T06:09:51.765Z,23
2018-06-17T06:10:52.898Z,23
2018-06-17T06:11:54.033Z,23.3
2018-06-17T06:12:55.170Z,23
2018-06-17T06:13:56.302Z,23
2018-06-17T06:14:57.699Z,23.4
2018-06-17T06:15:58.862Z,23
2018-06-17T06:17:00.104Z,23.1
2018-06-17T06:18:01.517Z,23
2018-06-17T06:19:03.773Z,23
2018-06-17T06:20:04.953Z,22.8
2018-06-17T06:21:06.105Z,22.9
2018-06-17T06:22:07.316Z,22.9
2018-06-17T06:23:08.441Z,22.9
2018-06-17T06:24:09.590Z,23
2018-06-17T06:25:10.755Z,23.3
2018-06-17T06:26:11.946Z,23.5
2018-06-17T06:27:13.419Z,23.3
2018-06-17T06:28:14.788Z,23
2018-06-17T06:29:16.293Z,23.2
2018-06-17T06:30:17.816Z,23.2
2018-06-17T06:31:19.005Z,23.3
2018-06-17T06:32:20.134Z,23.3
2018-06-17T06:33:21.277Z,23.3
2018-06-17T06:34:22.405Z,23.5
2018-06-17T06:35:23.589Z,23.3
2018-06-17T06:36:24.739Z,23.4
2018-06-17T06:37:25.885Z,23.5
2018-06-17T06:38:27.063Z,23.5
2018-06-17T06:39:28.229Z,23.5
2018-06-17T06:40:29.566Z,23.5
2018-06-17T06:41:31.229Z,23.5
2018-06-17T06:42:32.337Z,23.6
2018-06-17T06:43:33.482Z,23.7
2018-06-17T06:44:34.630Z,23.6
2018-06-17T06:45:35.850Z,23.4
2018-06-17T06:46:37.081Z,23.4
2018-06-17T06:47:38.343Z,23.2
2018-06-17T06:48:39.617Z,23.6
2018-06-17T06:49:40.759Z,23.8
2018-06-17T06:50:41.916Z,23.4
2018-06-17T06:51:43.057Z,23.5
2018-06-17T06:52:44.208Z,23.6
2018-06-17T06:53:45.346Z,23.9
2018-06-17T06:54:46.913Z,24.1
2018-06-17T06:55:48.078Z,24.3
2018-06-17T06:56:49.226Z,24.1
2018-06-17T06:57:50.432Z,24.1
2018-06-17T06:58:51.617Z,24.2
2018-06-17T06:59:53.060Z,24.6
2018-06-17T07:00:54.484Z,24.5
2018-06-17T07:01:55.623Z,24.2
2018-06-17T07:02:56.769Z,24.4
2018-06-17T07:03:57.949Z,24.4
2018-06-17T07:04:59.089Z,24.5
2018-06-17T07:06:00.253Z,24.7
2018-06-17T07:07:01.412Z,24.6
2018-06-17T07:08:02.562Z,24.5
2018-06-17T07:09:06.446Z,24.6
2018-06-17T07:10:07.674Z,24.4
2018-06-17T07:11:11.102Z,24.2
2018-06-17T07:12:12.243Z,24.6
2018-06-17T07:13:13.383Z,24.9
2018-06-17T07:14:14.539Z,25
2018-06-17T07:15:16.020Z,25
2018-06-17T07:16:20.278Z,25.5
2018-06-17T07:17:21.481Z,25.1
2018-06-17T07:18:23.125Z,25.3
2018-06-17T07:19:24.396Z,25.6
2018-06-17T07:20:25.539Z,25.5
2018-06-17T07:21:26.711Z,25.8
2018-06-17T07:22:27.854Z,26
2018-06-17T07:23:28.997Z,25.7
2018-06-17T07:24:30.113Z,26
2018-06-17T07:25:31.241Z,25.9
2018-06-17T07:26:32.440Z,26.3
2018-06-17T07:27:37.487Z,25.9
2018-06-17T07:28:38.956Z,26.3
2018-06-17T07:29:40.111Z,26.2
2018-06-17T07:30:41.244Z,25.9
2018-06-17T07:31:42.465Z,26.1
2018-06-17T07:32:43.664Z,26.2
2018-06-17T07:33:44.753Z,26
2018-06-17T07:34:45.928Z,26.1
2018-06-17T07:35:47.224Z,26.3
2018-06-17T07:36:48.457Z,26.1
2018-06-17T07:37:49.668Z,26
2018-06-17T07:38:50.820Z,25.8
2018-06-17T07:39:51.970Z,26.1
2018-06-17T07:40:53.126Z,26
2018-06-17T07:41:54.306Z,25.8
2018-06-17T07:42:55.498Z,25.8
2018-06-17T07:43:58.897Z,25.8
2018-06-17T07:45:01.793Z,25.8
2018-06-17T07:46:03.090Z,26
2018-06-17T07:47:04.373Z,26.1
2018-06-17T07:48:07.929Z,26.2
2018-06-17T07:49:09.097Z,26
2018-06-17T07:50:10.270Z,26.1
2018-06-17T07:51:11.424Z,26.1
2018-06-17T07:52:12.596Z,25.9
2018-06-17T07:53:13.770Z,25.9
2018-06-17T07:54:15.009Z,25.8
2018-06-17T07:55:16.150Z,25.9
2018-06-17T07:56:17.392Z,26
2018-06-17T07:57:19.048Z,26.1
2018-06-17T07:58:22.452Z,26.2
2018-06-17T07:59:24.089Z,26.2
2018-06-17T08:00:25.509Z,26.2
2018-06-17T08:01:28.808Z,26.3
2018-06-17T08:02:30.033Z,26.4
2018-06-17T08:03:31.229Z,26.5
2018-06-17T08:04:32.389Z,26.5
2018-06-17T08:05:33.521Z,26.5
2018-06-17T08:06:35.125Z,26.6
2018-06-17T08:07:36.344Z,26.9
2018-06-17T08:08:37.534Z,26.9
2018-06-17T08:09:38.671Z,26.9
2018-06-17T08:10:39.841Z,26.9
2018-06-17T08:11:41.045Z,27
2018-06-17T08:12:42.311Z,26.9
2018-06-17T08:13:43.512Z,26.9
2018-06-17T08:14:44.728Z,26.9
2018-06-17T08:15:45.948Z,27.1
2018-06-17T08:16:47.118Z,27.1
2018-06-17T08:17:48.410Z,27.2
2018-06-17T08:18:49.709Z,27.3
2018-06-17T08:19:51.343Z,27.3
2018-06-17T08:20:54.107Z,27.4
2018-06-17T08:21:55.464Z,27.5
2018-06-17T08:22:56.670Z,27.5
2018-06-17T08:23:57.896Z,27.3
2018-06-17T08:24:59.317Z,27.3
2018-06-17T08:26:00.792Z,27.5
2018-06-17T08:27:03.216Z,27.6
2018-06-17T08:28:05.163Z,27.5
2018-06-17T08:29:09.730Z,27.6
2018-06-17T08:30:10.899Z,27.7
2018-06-17T08:31:12.059Z,27.8
2018-06-17T08:32:13.227Z,27.7
2018-06-17T08:33:14.420Z,27.7
2018-06-17T08:34:15.580Z,27.8
2018-06-17T08:35:16.824Z,27.9
2018-06-17T08:36:18.190Z,27.8
2018-06-17T08:37:19.522Z,27.9
2018-06-17T08:38:20.852Z,27.9
2018-06-17T08:39:22.062Z,27.8
2018-06-17T08:40:23.233Z,27.7
2018-06-17T08:41:24.508Z,27.8
2018-06-17T08:42:25.671Z,27.7
2018-06-17T08:43:26.917Z,27.6
2018-06-17T08:44:28.119Z,27.6
2018-06-17T08:45:29.531Z,27.6
2018-06-17T08:46:30.806Z,27.6
2018-06-17T08:47:31.992Z,27.6
2018-06-17T08:48:33.486Z,27.6
2018-06-17T08:49:34.647Z,27.6
2018-06-17T08:50:35.827Z,27.6
2018-06-17T08:51:37.238Z,27.6
2018-06-17T08:52:39.108Z,27.6
2018-06-17T08:53:40.673Z,27.6
2018-06-17T08:54:42.053Z,27.7
2018-06-17T08:55:43.270Z,27.8
2018-06-17T08:56:44.413Z,27.9
2018-06-17T08:57:45.588Z,27.9
2018-06-17T08:58:46.890Z,28
2018-06-17T08:59:48.132Z,28
2018-06-17T09:00:49.268Z,28.1
2018-06-17T09:01:50.444Z,28
2018-06-17T09:02:53.266Z,28
2018-06-17T09:03:54.526Z,27.9
2018-06-17T09:04:55.655Z,27.9
2018-06-17T09:05:56.865Z,28
2018-06-17T09:06:58.050Z,27.9
2018-06-17T09:07:59.234Z,27.9
2018-06-17T09:09:00.492Z,28
2018-06-17T09:10:01.686Z,28
2018-06-17T09:11:02.831Z,28
2018-06-17T09:12:04.011Z,28
2018-06-17T09:13:05.138Z,27.9
2018-06-17T09:14:06.330Z,27.9
2018-06-17T09:15:07.496Z,27.9
2018-06-17T09:16:08.673Z,27.9
2018-06-17T09:17:09.826Z,28
2018-06-17T09:18:11.049Z,28
2018-06-17T09:19:12.385Z,28.1
2018-06-17T09:20:13.593Z,28.1
2018-06-17T09:21:14.744Z,28.1
2018-06-17T09:22:15.892Z,28.1
2018-06-17T09:23:18.363Z,28
2018-06-17T09:24:19.614Z,28
2018-06-17T09:25:20.807Z,28.1
2018-06-17T09:26:21.876Z,28.1
2018-06-17T09:27:23.018Z,28
2018-06-17T09:28:24.228Z,28
2018-06-17T09:29:25.421Z,27.9
2018-06-17T09:30:26.571Z,28
2018-06-17T09:31:27.766Z,28
2018-06-17T09:32:28.919Z,28
2018-06-17T09:33:30.113Z,28
2018-06-17T09:34:31.341Z,27.9
2018-06-17T09:35:32.506Z,28
2018-06-17T09:36:33.659Z,28
2018-06-17T09:37:34.819Z,28
2018-06-17T09:38:36.727Z,28
2018-06-17T09:39:38.251Z,27.9
2018-06-17T09:40:40.707Z,28
2018-06-17T09:41:41.917Z,28
2018-06-17T09:42:43.121Z,28
2018-06-17T09:43:44.305Z,28
2018-06-17T09:44:45.485Z,27.9
2018-06-17T09:45:46.643Z,27.9
2018-06-17T09:46:47.827Z,27.9
2018-06-17T09:47:48.957Z,27.9
2018-06-17T09:48:50.098Z,28
2018-06-17T09:49:51.724Z,28
2018-06-17T09:50:52.864Z,28
2018-06-17T09:51:54.007Z,27.9
2018-06-17T09:52:55.170Z,27.9
2018-06-17T09:53:56.331Z,27.9
2018-06-17T09:54:57.543Z,28
2018-06-17T09:55:58.727Z,28
2018-06-17T09:56:59.893Z,28
2018-06-17T09:58:01.101Z,28
2018-06-17T09:59:02.256Z,28
2018-06-17T10:00:03.441Z,28
2018-06-17T10:01:04.589Z,28
2018-06-17T10:02:05.735Z,28
2018-06-17T10:03:06.882Z,28
2018-06-17T10:04:08.037Z,28
2018-06-17T10:05:09.308Z,28
2018-06-17T10:06:10.453Z,27.9
2018-06-17T10:07:11.605Z,27.9
2018-06-17T10:08:12.754Z,27.9
2018-06-17T10:09:13.975Z,27.9
2018-06-17T10:10:15.234Z,27.9
2018-06-17T10:11:16.456Z,28
2018-06-17T10:12:17.612Z,27.9
2018-06-17T10:13:18.845Z,27.9
2018-06-17T10:14:20.038Z,27.8
2018-06-17T10:15:21.229Z,27.8
2018-06-17T10:16:23.669Z,27.8
2018-06-17T10:17:24.898Z,27.9
2018-06-17T10:18:26.025Z,27.8
2018-06-17T10:19:27.193Z,27.9
2018-06-17T10:20:28.665Z,27.9
2018-06-17T10:21:29.826Z,27.9
2018-06-17T10:22:30.966Z,28
2018-06-17T10:23:32.123Z,28
2018-06-17T10:24:33.257Z,28
2018-06-17T10:25:34.498Z,28
2018-06-17T10:26:35.709Z,28
2018-06-17T10:27:36.920Z,27.9
2018-06-17T10:28:38.131Z,28
2018-06-17T10:29:39.454Z,28
2018-06-17T10:30:40.737Z,27.9
2018-06-17T10:31:42.073Z,27.9
2018-06-17T10:32:43.241Z,28
2018-06-17T10:33:44.438Z,28
2018-06-17T10:34:45.719Z,28
2018-06-17T10:35:47.038Z,28
2018-06-17T10:36:48.369Z,28
2018-06-17T10:37:49.558Z,28
2018-06-17T10:38:50.753Z,27.9
2018-06-17T10:39:52.228Z,27.8
2018-06-17T10:40:53.500Z,27.9
2018-06-17T10:41:54.712Z,27.9
2018-06-17T10:42:55.911Z,27.9
2018-06-17T10:43:57.098Z,27.9
2018-06-17T10:44:58.405Z,27.9
2018-06-17T10:45:59.649Z,27.9
2018-06-17T10:47:00.838Z,27.9
2018-06-17T10:48:02.194Z,27.9
2018-06-17T10:49:03.410Z,27.9
2018-06-17T10:50:04.681Z,27.9
2018-06-17T10:51:06.222Z,27.9
2018-06-17T10:52:08.463Z,27.9
2018-06-17T10:53:09.950Z,27.9
2018-06-17T10:54:11.204Z,27.9
2018-06-17T10:55:12.427Z,27.9
2018-06-17T10:56:13.752Z,27.9
2018-06-17T10:57:14.946Z,27.9
2018-06-17T10:58:16.154Z,27.8
2018-06-17T10:59:17.408Z,27.9
2018-06-17T11:00:18.711Z,27.9
2018-06-17T11:01:19.944Z,27.9
2018-06-17T11:02:21.166Z,27.9
2018-06-17T11:03:22.418Z,27.9
2018-06-17T11:04:23.652Z,27.9
2018-06-17T11:05:25.295Z,27.9
2018-06-17T11:06:26.899Z,27.9
2018-06-17T11:07:28.233Z,27.9
2018-06-17T11:08:29.434Z,27.9
2018-06-17T11:09:30.648Z,27.8
2018-06-17T11:10:31.855Z,27.9
2018-06-17T11:11:33.111Z,27.9
2018-06-17T11:12:34.334Z,27.9
2018-06-17T11:13:35.611Z,27.8
2018-06-17T11:14:48.033Z,27.9
2018-06-17T11:16:05.433Z,27.8
2018-06-17T11:17:06.644Z,27.8
2018-06-17T11:18:07.825Z,27.9
2018-06-17T11:19:09.078Z,27.9
2018-06-17T11:20:10.333Z,27.9
2018-06-17T11:21:11.528Z,27.9
2018-06-17T11:22:12.978Z,27.8
2018-06-17T11:23:14.227Z,27.9
2018-06-17T11:24:15.419Z,27.9
2018-06-17T11:25:16.598Z,27.9
2018-06-17T11:26:17.806Z,27.9
2018-06-17T11:27:19.029Z,27.9
2018-06-17T11:28:20.211Z,27.9
2018-06-17T11:29:21.400Z,27.9
2018-06-17T11:30:22.599Z,27.8
2018-06-17T11:31:23.823Z,27.9
2018-06-17T11:32:25.042Z,27.9
2018-06-17T11:33:26.224Z,27.9
2018-06-17T11:34:27.412Z,27.9
2018-06-17T11:35:28.765Z,27.9
2018-06-17T11:36:29.953Z,27.8
2018-06-17T11:37:31.203Z,27.8
2018-06-17T11:38:32.415Z,27.9
2018-06-17T11:39:33.627Z,27.8
2018-06-17T11:40:34.891Z,27.8
2018-06-17T11:41:42.074Z,27.7
2018-06-17T11:42:43.315Z,27.9
2018-06-17T11:43:44.507Z,27.9
2018-06-17T11:44:45.723Z,27.9
2018-06-17T11:45:46.868Z,27.9
2018-06-17T11:46:48.147Z,27.8
2018-06-17T11:47:49.434Z,27.8
2018-06-17T11:48:50.751Z,27.9
2018-06-17T11:49:51.930Z,27.8
2018-06-17T11:50:53.157Z,27.8
2018-06-17T11:51:56.727Z,27.8
2018-06-17T11:52:58.032Z,27.8
2018-06-17T11:53:59.483Z,27.8
2018-06-17T11:55:00.857Z,27.8
2018-06-17T11:56:02.265Z,27.9
2018-06-17T11:57:03.474Z,27.8
2018-06-17T11:58:04.804Z,27.8
2018-06-17T11:59:06.114Z,27.7
2018-06-17T12:00:07.581Z,27.8
2018-06-17T12:01:09.223Z,27.8
2018-06-17T12:02:10.839Z,27.7
2018-06-17T12:03:14.637Z,27.8
2018-06-17T12:04:15.891Z,27.8
2018-06-17T12:05:17.100Z,27.6
2018-06-17T12:06:18.366Z,27.8
2018-06-17T12:07:19.633Z,27.7
2018-06-17T12:08:21.133Z,27.7
2018-06-17T12:09:22.391Z,27.7
2018-06-17T12:10:23.678Z,27.7
2018-06-17T12:11:27.788Z,27.8
2018-06-17T12:12:29.574Z,27.8
2018-06-17T12:13:30.932Z,27.8
2018-06-17T12:14:32.152Z,27.8
2018-06-17T12:15:33.365Z,27.8
2018-06-17T12:16:34.584Z,27.8
2018-06-17T12:17:35.828Z,27.8
2018-06-17T12:18:37.406Z,27.8
2018-06-17T12:19:38.857Z,27.8
2018-06-17T12:20:40.148Z,27.8
2018-06-17T12:21:41.386Z,27.8
2018-06-17T12:22:42.933Z,27.7
2018-06-17T12:23:44.718Z,27.8
2018-06-17T12:24:46.000Z,27.9
2018-06-17T12:25:47.256Z,27.8
2018-06-17T12:26:48.530Z,27.8
2018-06-17T12:27:49.812Z,27.8
2018-06-17T12:29:59.258Z,27.8
2018-06-17T12:31:00.487Z,27.8
2018-06-17T12:32:02.449Z,27.8
2018-06-17T12:33:05.524Z,27.8
2018-06-17T12:34:06.932Z,27.8
2018-06-17T12:35:08.368Z,27.7
2018-06-17T12:36:09.672Z,27.8
2018-06-17T12:37:10.982Z,27.6
2018-06-17T12:38:12.265Z,27.7
2018-06-17T12:39:13.620Z,27.7
2018-06-17T12:40:15.035Z,27.7
2018-06-17T12:41:16.313Z,27.8
2018-06-17T12:42:17.599Z,27.8
2018-06-17T12:43:18.997Z,27.8
2018-06-17T12:44:20.371Z,27.8
2018-06-17T12:45:21.655Z,27.8
2018-06-17T12:46:22.996Z,27.7
2018-06-17T12:47:24.604Z,27.7
2018-06-17T12:48:26.043Z,27.8
2018-06-17T12:49:27.439Z,27.7
2018-06-17T12:50:29.170Z,27.7
2018-06-17T12:51:30.951Z,27.7
2018-06-17T12:52:32.219Z,27.7
2018-06-17T12:53:33.476Z,27.7
2018-06-17T12:54:34.801Z,27.7
2018-06-17T12:55:36.085Z,27.7
2018-06-17T12:56:37.424Z,27.7
2018-06-17T12:57:38.829Z,27.7
2018-06-17T12:58:40.229Z,27.8
2018-06-17T12:59:41.627Z,27.8
2018-06-17T13:00:42.971Z,27.8
2018-06-17T13:01:45.473Z,27.8
2018-06-17T13:02:46.747Z,27.7
2018-06-17T13:03:49.558Z,27.7
2018-06-17T13:04:50.870Z,27.7
2018-06-17T13:05:52.093Z,27.7
2018-06-17T13:06:53.433Z,27.7
2018-06-17T13:07:54.619Z,27.7
2018-06-17T13:08:56.306Z,27.6
2018-06-17T13:09:57.850Z,27.7
2018-06-17T13:10:59.137Z,27.6
2018-06-17T13:12:01.411Z,27.6
2018-06-17T13:13:02.839Z,27.6
2018-06-17T13:14:04.098Z,27.6
2018-06-17T13:15:05.365Z,27.6
2018-06-17T13:16:06.769Z,27.6
2018-06-17T13:17:08.048Z,27.5
2018-06-17T13:18:10.173Z,27.5
2018-06-17T13:19:11.815Z,27.5
2018-06-17T13:20:14.618Z,27.5
2018-06-17T13:21:15.923Z,27.5
2018-06-17T13:22:18.517Z,27.4
2018-06-17T13:23:20.058Z,27.4
2018-06-17T13:24:21.340Z,27.4
2018-06-17T13:25:22.762Z,27.4
2018-06-17T13:26:24.047Z,27.2
2018-06-17T13:27:25.283Z,27.3
2018-06-17T13:28:26.554Z,27.3
2018-06-17T13:29:27.844Z,27.3
2018-06-17T13:30:29.384Z,27.2
2018-06-17T13:31:30.995Z,27.3
2018-06-17T13:32:32.419Z,27.3
2018-06-17T13:33:33.856Z,27.3
2018-06-17T13:34:35.516Z,27.3
2018-06-17T13:35:37.163Z,27.3
2018-06-17T13:36:38.698Z,27.4
2018-06-17T13:37:40.195Z,27.4
2018-06-17T13:38:41.770Z,27.3
2018-06-17T13:39:43.239Z,27.3
2018-06-17T13:40:44.689Z,27.3
2018-06-17T13:41:46.335Z,27.3
2018-06-17T13:42:58.479Z,27.3
2018-06-17T13:44:00.142Z,27.2
2018-06-17T13:45:05.721Z,27.2